sensor_id;sensor_type;location;lat;lon;timestamp;P1;durP1;ratioP1;P2;durP2;ratioP2
37997;SDS011;24079;51.824;4.682;2023-02-21T00:02:16;82.93;;;32.47;;
37997;SDS011;24079;51.824;4.682;2023-02-21T00:05:00;76.45;;;32.10;;
37997;SDS011;24079;51.824;4.682;2023-02-21T00:07:45;83.22;;;33.40;;
37997;SDS011;24079;51.824;4.682;2023-02-21T00:10:29;79.05;;;31.55;;
37997;SDS011;24079;51.824;4.682;2023-02-21T00:13:13;77.68;;;28.38;;
37997;SDS011;24079;51.824;4.682;2023-02-21T00:15:57;77.10;;;30.70;;
37997;SDS011;24079;51.824;4.682;2023-02-21T00:18:41;81.13;;;29.23;;
37997;SDS011;24079;51.824;4.682;2023-02-21T00:21:29;82.20;;;30.38;;
37997;SDS011;24079;51.824;4.682;2023-02-21T00:24:14;85.38;;;32.20;;
37997;SDS011;24079;51.824;4.682;2023-02-21T00:27:00;82.90;;;31.48;;
37997;SDS011;24079;51.824;4.682;2023-02-21T00:29:48;81.88;;;32.28;;
37997;SDS011;24079;51.824;4.682;2023-02-21T00:32:33;78.07;;;32.03;;
37997;SDS011;24079;51.824;4.682;2023-02-21T00:35:17;83.00;;;32.83;;
37997;SDS011;24079;51.824;4.682;2023-02-21T00:38:02;81.95;;;30.40;;
37997;SDS011;24079;51.824;4.682;2023-02-21T00:40:46;90.13;;;31.58;;
37997;SDS011;24079;51.824;4.682;2023-02-21T00:43:31;85.38;;;34.67;;
37997;SDS011;24079;51.824;4.682;2023-02-21T00:46:17;80.18;;;31.88;;
37997;SDS011;24079;51.824;4.682;2023-02-21T00:49:02;67.88;;;29.88;;
37997;SDS011;24079;51.824;4.682;2023-02-21T00:51:47;72.25;;;28.75;;
37997;SDS011;24079;51.824;4.682;2023-02-21T00:54:31;55.38;;;23.95;;
37997;SDS011;24079;51.824;4.682;2023-02-21T00:57:16;64.57;;;25.08;;
37997;SDS011;24079;51.824;4.682;2023-02-21T01:00:01;69.50;;;27.83;;
37997;SDS011;24079;51.824;4.682;2023-02-21T01:02:45;66.85;;;25.05;;
37997;SDS011;24079;51.824;4.682;2023-02-21T01:05:30;57.88;;;25.13;;
37997;SDS011;24079;51.824;4.682;2023-02-21T01:08:14;68.07;;;24.52;;
37997;SDS011;24079;51.824;4.682;2023-02-21T01:10:58;66.55;;;23.65;;
37997;SDS011;24079;51.824;4.682;2023-02-21T01:13:42;68.70;;;25.80;;
37997;SDS011;24079;51.824;4.682;2023-02-21T01:16:27;65.97;;;26.83;;
37997;SDS011;24079;51.824;4.682;2023-02-21T01:19:12;71.07;;;27.40;;
37997;SDS011;24079;51.824;4.682;2023-02-21T01:21:57;65.88;;;27.75;;
37997;SDS011;24079;51.824;4.682;2023-02-21T01:24:41;74.30;;;29.08;;
37997;SDS011;24079;51.824;4.682;2023-02-21T01:27:25;63.63;;;27.27;;
37997;SDS011;24079;51.824;4.682;2023-02-21T01:30:09;77.90;;;29.33;;
37997;SDS011;24079;51.824;4.682;2023-02-21T01:32:54;79.28;;;30.70;;
37997;SDS011;24079;51.824;4.682;2023-02-21T01:35:38;68.80;;;30.50;;
37997;SDS011;24079;51.824;4.682;2023-02-21T01:38:22;70.63;;;28.15;;
37997;SDS011;24079;51.824;4.682;2023-02-21T01:41:06;72.53;;;30.73;;
37997;SDS011;24079;51.824;4.682;2023-02-21T01:43:55;73.05;;;31.13;;
37997;SDS011;24079;51.824;4.682;2023-02-21T01:46:44;75.15;;;32.28;;
37997;SDS011;24079;51.824;4.682;2023-02-21T01:49:28;76.07;;;32.92;;
37997;SDS011;24079;51.824;4.682;2023-02-21T01:52:13;74.63;;;32.35;;
37997;SDS011;24079;51.824;4.682;2023-02-21T01:54:58;73.60;;;34.70;;
37997;SDS011;24079;51.824;4.682;2023-02-21T01:57:42;74.32;;;35.00;;
37997;SDS011;24079;51.824;4.682;2023-02-21T02:00:28;86.38;;;36.38;;
37997;SDS011;24079;51.824;4.682;2023-02-21T02:03:13;80.57;;;36.10;;
37997;SDS011;24079;51.824;4.682;2023-02-21T02:06:02;98.63;;;38.72;;
37997;SDS011;24079;51.824;4.682;2023-02-21T02:08:49;86.25;;;38.80;;
37997;SDS011;24079;51.824;4.682;2023-02-21T02:17:20;86.63;;;38.55;;
37997;SDS011;24079;51.824;4.682;2023-02-21T02:30:55;90.85;;;42.08;;
37997;SDS011;24079;51.824;4.682;2023-02-21T02:36:52;97.20;;;43.97;;
37997;SDS011;24079;51.824;4.682;2023-02-21T02:39:31;92.07;;;42.17;;
37997;SDS011;24079;51.824;4.682;2023-02-21T02:42:10;105.28;;;44.85;;
37997;SDS011;24079;51.824;4.682;2023-02-21T02:45:07;103.63;;;42.95;;
37997;SDS011;24079;51.824;4.682;2023-02-21T02:47:39;104.40;;;43.45;;
37997;SDS011;24079;51.824;4.682;2023-02-21T02:50:08;105.70;;;42.67;;
37997;SDS011;24079;51.824;4.682;2023-02-21T02:52:36;99.93;;;43.10;;
37997;SDS011;24079;51.824;4.682;2023-02-21T02:55:04;115.85;;;45.20;;
37997;SDS011;24079;51.824;4.682;2023-02-21T02:57:47;99.03;;;43.67;;
37997;SDS011;24079;51.824;4.682;2023-02-21T03:00:15;91.28;;;43.90;;
37997;SDS011;24079;51.824;4.682;2023-02-21T03:10:39;98.70;;;40.25;;
37997;SDS011;24079;51.824;4.682;2023-02-21T03:18:45;99.15;;;39.97;;
37997;SDS011;24079;51.824;4.682;2023-02-21T03:21:21;89.20;;;41.38;;
37997;SDS011;24079;51.824;4.682;2023-02-21T03:23:51;94.55;;;39.90;;
37997;SDS011;24079;51.824;4.682;2023-02-21T03:26:21;85.18;;;39.88;;
37997;SDS011;24079;51.824;4.682;2023-02-21T03:28:47;93.47;;;40.58;;
37997;SDS011;24079;51.824;4.682;2023-02-21T03:31:15;96.82;;;40.92;;
37997;SDS011;24079;51.824;4.682;2023-02-21T03:33:44;91.20;;;40.05;;
37997;SDS011;24079;51.824;4.682;2023-02-21T03:36:10;90.28;;;40.50;;
37997;SDS011;24079;51.824;4.682;2023-02-21T03:38:37;98.82;;;41.03;;
37997;SDS011;24079;51.824;4.682;2023-02-21T03:41:03;107.38;;;40.63;;
37997;SDS011;24079;51.824;4.682;2023-02-21T03:43:30;100.85;;;43.35;;
37997;SDS011;24079;51.824;4.682;2023-02-21T03:45:56;103.97;;;41.70;;
37997;SDS011;24079;51.824;4.682;2023-02-21T03:48:22;93.95;;;41.45;;
37997;SDS011;24079;51.824;4.682;2023-02-21T03:50:48;96.78;;;41.22;;
37997;SDS011;24079;51.824;4.682;2023-02-21T03:53:14;97.00;;;40.75;;
37997;SDS011;24079;51.824;4.682;2023-02-21T03:55:40;101.85;;;42.55;;
37997;SDS011;24079;51.824;4.682;2023-02-21T03:58:05;111.53;;;42.25;;
37997;SDS011;24079;51.824;4.682;2023-02-21T04:00:31;99.80;;;43.13;;
37997;SDS011;24079;51.824;4.682;2023-02-21T04:02:57;105.88;;;42.75;;
37997;SDS011;24079;51.824;4.682;2023-02-21T04:05:22;117.25;;;42.67;;
37997;SDS011;24079;51.824;4.682;2023-02-21T04:07:48;108.03;;;43.80;;
37997;SDS011;24079;51.824;4.682;2023-02-21T04:10:13;116.47;;;44.00;;
37997;SDS011;24079;51.824;4.682;2023-02-21T04:12:39;111.80;;;42.85;;
37997;SDS011;24079;51.824;4.682;2023-02-21T04:15:05;103.53;;;43.15;;
37997;SDS011;24079;51.824;4.682;2023-02-21T04:17:31;101.93;;;42.53;;
37997;SDS011;24079;51.824;4.682;2023-02-21T04:19:56;97.53;;;43.13;;
37997;SDS011;24079;51.824;4.682;2023-02-21T04:22:22;103.60;;;43.70;;
37997;SDS011;24079;51.824;4.682;2023-02-21T04:24:47;105.78;;;42.55;;
37997;SDS011;24079;51.824;4.682;2023-02-21T04:27:13;100.15;;;41.80;;
37997;SDS011;24079;51.824;4.682;2023-02-21T04:29:39;97.07;;;42.28;;
37997;SDS011;24079;51.824;4.682;2023-02-21T04:32:05;103.95;;;42.10;;
37997;SDS011;24079;51.824;4.682;2023-02-21T04:34:31;105.72;;;45.33;;
37997;SDS011;24079;51.824;4.682;2023-02-21T04:36:57;97.72;;;43.28;;
37997;SDS011;24079;51.824;4.682;2023-02-21T04:39:22;108.57;;;42.60;;
37997;SDS011;24079;51.824;4.682;2023-02-21T04:41:48;104.85;;;42.85;;
37997;SDS011;24079;51.824;4.682;2023-02-21T04:44:14;107.22;;;42.83;;
37997;SDS011;24079;51.824;4.682;2023-02-21T04:46:41;100.40;;;43.75;;
37997;SDS011;24079;51.824;4.682;2023-02-21T04:49:07;109.15;;;44.20;;
37997;SDS011;24079;51.824;4.682;2023-02-21T04:51:34;107.20;;;44.92;;
37997;SDS011;24079;51.824;4.682;2023-02-21T04:53:59;115.75;;;43.63;;
37997;SDS011;24079;51.824;4.682;2023-02-21T04:56:25;106.00;;;43.75;;
37997;SDS011;24079;51.824;4.682;2023-02-21T04:58:53;109.38;;;44.65;;
37997;SDS011;24079;51.824;4.682;2023-02-21T05:01:20;104.05;;;44.90;;
37997;SDS011;24079;51.824;4.682;2023-02-21T05:03:46;108.85;;;44.03;;
37997;SDS011;24079;51.824;4.682;2023-02-21T05:06:16;112.40;;;45.50;;
37997;SDS011;24079;51.824;4.682;2023-02-21T05:08:46;103.45;;;43.83;;
37997;SDS011;24079;51.824;4.682;2023-02-21T05:11:12;107.57;;;45.05;;
37997;SDS011;24079;51.824;4.682;2023-02-21T05:13:39;108.90;;;44.90;;
37997;SDS011;24079;51.824;4.682;2023-02-21T05:16:04;114.78;;;45.92;;
37997;SDS011;24079;51.824;4.682;2023-02-21T05:18:31;108.20;;;45.40;;
37997;SDS011;24079;51.824;4.682;2023-02-21T05:20:59;111.32;;;46.53;;
37997;SDS011;24079;51.824;4.682;2023-02-21T05:23:25;112.28;;;45.38;;
37997;SDS011;24079;51.824;4.682;2023-02-21T05:26:01;110.03;;;45.80;;
37997;SDS011;24079;51.824;4.682;2023-02-21T05:28:29;111.10;;;45.00;;
37997;SDS011;24079;51.824;4.682;2023-02-21T05:30:55;107.82;;;45.92;;
37997;SDS011;24079;51.824;4.682;2023-02-21T05:33:21;113.95;;;48.03;;
37997;SDS011;24079;51.824;4.682;2023-02-21T05:35:48;117.28;;;44.97;;
37997;SDS011;24079;51.824;4.682;2023-02-21T05:38:15;103.20;;;44.00;;
37997;SDS011;24079;51.824;4.682;2023-02-21T05:40:42;118.70;;;46.90;;
37997;SDS011;24079;51.824;4.682;2023-02-21T05:43:09;121.20;;;46.45;;
37997;SDS011;24079;51.824;4.682;2023-02-21T05:45:35;112.93;;;45.38;;
37997;SDS011;24079;51.824;4.682;2023-02-21T05:48:01;125.25;;;47.40;;
37997;SDS011;24079;51.824;4.682;2023-02-21T05:50:28;132.48;;;47.40;;
37997;SDS011;24079;51.824;4.682;2023-02-21T05:52:57;117.30;;;47.83;;
37997;SDS011;24079;51.824;4.682;2023-02-21T05:55:23;111.22;;;45.67;;
37997;SDS011;24079;51.824;4.682;2023-02-21T05:57:49;130.30;;;45.17;;
37997;SDS011;24079;51.824;4.682;2023-02-21T06:00:16;108.07;;;46.05;;
37997;SDS011;24079;51.824;4.682;2023-02-21T06:02:44;121.03;;;46.53;;
37997;SDS011;24079;51.824;4.682;2023-02-21T06:05:09;121.00;;;48.15;;
37997;SDS011;24079;51.824;4.682;2023-02-21T06:07:35;123.05;;;47.08;;
37997;SDS011;24079;51.824;4.682;2023-02-21T06:10:02;117.68;;;45.10;;
37997;SDS011;24079;51.824;4.682;2023-02-21T06:12:28;120.68;;;46.75;;
37997;SDS011;24079;51.824;4.682;2023-02-21T06:14:53;122.32;;;46.20;;
37997;SDS011;24079;51.824;4.682;2023-02-21T06:17:19;123.80;;;47.25;;
37997;SDS011;24079;51.824;4.682;2023-02-21T06:19:45;119.88;;;46.97;;
37997;SDS011;24079;51.824;4.682;2023-02-21T06:22:10;129.45;;;47.45;;
37997;SDS011;24079;51.824;4.682;2023-02-21T06:24:36;139.85;;;48.45;;
37997;SDS011;24079;51.824;4.682;2023-02-21T06:27:02;137.15;;;49.30;;
37997;SDS011;24079;51.824;4.682;2023-02-21T06:29:28;132.48;;;50.05;;
37997;SDS011;24079;51.824;4.682;2023-02-21T06:31:57;125.00;;;47.05;;
37997;SDS011;24079;51.824;4.682;2023-02-21T06:34:23;131.95;;;49.30;;
37997;SDS011;24079;51.824;4.682;2023-02-21T06:36:53;136.43;;;49.95;;
37997;SDS011;24079;51.824;4.682;2023-02-21T06:39:19;137.23;;;48.47;;
37997;SDS011;24079;51.824;4.682;2023-02-21T06:41:45;146.57;;;48.97;;
37997;SDS011;24079;51.824;4.682;2023-02-21T06:44:13;133.05;;;49.83;;
37997;SDS011;24079;51.824;4.682;2023-02-21T06:46:40;137.85;;;47.92;;
37997;SDS011;24079;51.824;4.682;2023-02-21T06:49:06;134.57;;;50.35;;
37997;SDS011;24079;51.824;4.682;2023-02-21T06:51:35;125.80;;;48.03;;
37997;SDS011;24079;51.824;4.682;2023-02-21T06:54:02;130.05;;;45.75;;
37997;SDS011;24079;51.824;4.682;2023-02-21T06:56:29;139.48;;;48.90;;
37997;SDS011;24079;51.824;4.682;2023-02-21T06:58:55;133.55;;;48.15;;
37997;SDS011;24079;51.824;4.682;2023-02-21T07:01:21;121.55;;;45.95;;
37997;SDS011;24079;51.824;4.682;2023-02-21T07:03:49;122.45;;;45.40;;
37997;SDS011;24079;51.824;4.682;2023-02-21T07:06:16;130.13;;;46.35;;
37997;SDS011;24079;51.824;4.682;2023-02-21T07:08:42;121.90;;;46.17;;
37997;SDS011;24079;51.824;4.682;2023-02-21T07:11:08;124.53;;;46.20;;
37997;SDS011;24079;51.824;4.682;2023-02-21T07:13:35;132.73;;;45.80;;
37997;SDS011;24079;51.824;4.682;2023-02-21T07:16:01;121.65;;;45.53;;
37997;SDS011;24079;51.824;4.682;2023-02-21T07:18:28;119.03;;;44.67;;
37997;SDS011;24079;51.824;4.682;2023-02-21T07:20:54;121.80;;;47.03;;
37997;SDS011;24079;51.824;4.682;2023-02-21T07:23:20;115.43;;;47.05;;
37997;SDS011;24079;51.824;4.682;2023-02-21T07:25:46;128.93;;;46.33;;
37997;SDS011;24079;51.824;4.682;2023-02-21T07:28:12;119.55;;;45.70;;
37997;SDS011;24079;51.824;4.682;2023-02-21T07:30:38;121.68;;;45.45;;
37997;SDS011;24079;51.824;4.682;2023-02-21T07:33:05;115.72;;;44.60;;
37997;SDS011;24079;51.824;4.682;2023-02-21T07:35:31;120.60;;;44.75;;
37997;SDS011;24079;51.824;4.682;2023-02-21T07:37:57;131.55;;;48.28;;
37997;SDS011;24079;51.824;4.682;2023-02-21T07:40:23;119.05;;;45.78;;
37997;SDS011;24079;51.824;4.682;2023-02-21T07:42:49;121.20;;;45.67;;
37997;SDS011;24079;51.824;4.682;2023-02-21T07:45:15;122.88;;;45.58;;
37997;SDS011;24079;51.824;4.682;2023-02-21T07:47:42;114.32;;;43.03;;
37997;SDS011;24079;51.824;4.682;2023-02-21T07:50:10;121.05;;;45.45;;
37997;SDS011;24079;51.824;4.682;2023-02-21T07:52:36;113.65;;;43.92;;
37997;SDS011;24079;51.824;4.682;2023-02-21T07:55:03;125.85;;;43.28;;
37997;SDS011;24079;51.824;4.682;2023-02-21T07:57:29;131.27;;;45.70;;
37997;SDS011;24079;51.824;4.682;2023-02-21T07:59:56;121.28;;;45.00;;
37997;SDS011;24079;51.824;4.682;2023-02-21T08:02:22;126.28;;;45.08;;
37997;SDS011;24079;51.824;4.682;2023-02-21T08:04:51;115.32;;;44.53;;
37997;SDS011;24079;51.824;4.682;2023-02-21T08:07:18;124.90;;;45.15;;
37997;SDS011;24079;51.824;4.682;2023-02-21T08:09:44;116.43;;;45.65;;
37997;SDS011;24079;51.824;4.682;2023-02-21T08:12:11;128.18;;;45.63;;
37997;SDS011;24079;51.824;4.682;2023-02-21T08:14:37;131.30;;;48.38;;
37997;SDS011;24079;51.824;4.682;2023-02-21T08:17:03;135.73;;;49.80;;
37997;SDS011;24079;51.824;4.682;2023-02-21T08:19:29;143.80;;;50.92;;
37997;SDS011;24079;51.824;4.682;2023-02-21T08:21:55;145.88;;;52.03;;
37997;SDS011;24079;51.824;4.682;2023-02-21T08:24:21;153.32;;;51.33;;
37997;SDS011;24079;51.824;4.682;2023-02-21T08:26:47;155.05;;;53.92;;
37997;SDS011;24079;51.824;4.682;2023-02-21T08:29:13;157.45;;;56.42;;
37997;SDS011;24079;51.824;4.682;2023-02-21T08:31:40;154.75;;;55.53;;
37997;SDS011;24079;51.824;4.682;2023-02-21T08:34:08;152.23;;;53.35;;
37997;SDS011;24079;51.824;4.682;2023-02-21T08:36:36;163.13;;;55.28;;
37997;SDS011;24079;51.824;4.682;2023-02-21T08:39:04;152.25;;;55.72;;
37997;SDS011;24079;51.824;4.682;2023-02-21T08:41:37;166.98;;;55.28;;
37997;SDS011;24079;51.824;4.682;2023-02-21T08:44:09;156.77;;;55.42;;
37997;SDS011;24079;51.824;4.682;2023-02-21T08:46:36;181.68;;;59.13;;
37997;SDS011;24079;51.824;4.682;2023-02-21T08:49:04;186.63;;;61.30;;
37997;SDS011;24079;51.824;4.682;2023-02-21T08:51:30;170.98;;;58.55;;
37997;SDS011;24079;51.824;4.682;2023-02-21T08:53:57;181.50;;;59.80;;
37997;SDS011;24079;51.824;4.682;2023-02-21T08:56:24;177.05;;;60.33;;
37997;SDS011;24079;51.824;4.682;2023-02-21T08:58:51;186.50;;;59.47;;
37997;SDS011;24079;51.824;4.682;2023-02-21T09:01:19;172.68;;;56.15;;
37997;SDS011;24079;51.824;4.682;2023-02-21T09:03:45;182.52;;;57.92;;
37997;SDS011;24079;51.824;4.682;2023-02-21T09:06:11;173.95;;;56.22;;
37997;SDS011;24079;51.824;4.682;2023-02-21T09:08:38;185.38;;;58.45;;
37997;SDS011;24079;51.824;4.682;2023-02-21T09:11:05;198.02;;;60.03;;
37997;SDS011;24079;51.824;4.682;2023-02-21T09:13:32;187.13;;;59.33;;
37997;SDS011;24079;51.824;4.682;2023-02-21T09:16:00;194.48;;;60.20;;
37997;SDS011;24079;51.824;4.682;2023-02-21T09:18:28;207.57;;;60.90;;
37997;SDS011;24079;51.824;4.682;2023-02-21T09:20:55;188.30;;;59.45;;
37997;SDS011;24079;51.824;4.682;2023-02-21T09:23:22;189.15;;;58.55;;
37997;SDS011;24079;51.824;4.682;2023-02-21T09:25:50;178.05;;;55.22;;
37997;SDS011;24079;51.824;4.682;2023-02-21T09:28:16;185.73;;;58.00;;
37997;SDS011;24079;51.824;4.682;2023-02-21T09:30:42;178.00;;;54.80;;
37997;SDS011;24079;51.824;4.682;2023-02-21T09:33:09;173.45;;;52.95;;
37997;SDS011;24079;51.824;4.682;2023-02-21T09:35:35;156.63;;;49.78;;
37997;SDS011;24079;51.824;4.682;2023-02-21T09:38:02;168.95;;;51.67;;
37997;SDS011;24079;51.824;4.682;2023-02-21T09:42:59;152.27;;;47.00;;
37997;SDS011;24079;51.824;4.682;2023-02-21T09:45:29;138.00;;;45.53;;
37997;SDS011;24079;51.824;4.682;2023-02-21T09:47:58;137.82;;;44.90;;
37997;SDS011;24079;51.824;4.682;2023-02-21T09:50:28;126.38;;;43.75;;
37997;SDS011;24079;51.824;4.682;2023-02-21T09:52:59;129.85;;;44.40;;
37997;SDS011;24079;51.824;4.682;2023-02-21T09:55:27;132.85;;;44.10;;
37997;SDS011;24079;51.824;4.682;2023-02-21T09:58:08;125.88;;;41.28;;
37997;SDS011;24079;51.824;4.682;2023-02-21T10:00:36;126.38;;;42.42;;
37997;SDS011;24079;51.824;4.682;2023-02-21T10:05:45;107.90;;;36.55;;
37997;SDS011;24079;51.824;4.682;2023-02-21T10:11:24;90.97;;;35.08;;
37997;SDS011;24079;51.824;4.682;2023-02-21T10:14:02;90.18;;;33.65;;
37997;SDS011;24079;51.824;4.682;2023-02-21T10:16:55;87.60;;;33.42;;
37997;SDS011;24079;51.824;4.682;2023-02-21T10:19:36;81.13;;;32.83;;
37997;SDS011;24079;51.824;4.682;2023-02-21T10:22:24;86.97;;;31.67;;
37997;SDS011;24079;51.824;4.682;2023-02-21T10:24:52;72.75;;;28.70;;
37997;SDS011;24079;51.824;4.682;2023-02-21T10:27:20;69.65;;;29.42;;
37997;SDS011;24079;51.824;4.682;2023-02-21T10:30:07;67.60;;;27.23;;
37997;SDS011;24079;51.824;4.682;2023-02-21T10:32:45;68.60;;;27.10;;
37997;SDS011;24079;51.824;4.682;2023-02-21T10:35:11;62.15;;;25.35;;
37997;SDS011;24079;51.824;4.682;2023-02-21T10:37:41;63.35;;;26.00;;
37997;SDS011;24079;51.824;4.682;2023-02-21T10:40:18;63.60;;;24.48;;
37997;SDS011;24079;51.824;4.682;2023-02-21T10:43:04;61.53;;;25.63;;
37997;SDS011;24079;51.824;4.682;2023-02-21T10:45:33;55.53;;;23.70;;
37997;SDS011;24079;51.824;4.682;2023-02-21T10:48:04;53.57;;;24.60;;
37997;SDS011;24079;51.824;4.682;2023-02-21T10:55:31;44.97;;;20.85;;
37997;SDS011;24079;51.824;4.682;2023-02-21T10:57:57;47.63;;;22.98;;
37997;SDS011;24079;51.824;4.682;2023-02-21T11:00:34;50.63;;;22.58;;
37997;SDS011;24079;51.824;4.682;2023-02-21T11:03:05;48.15;;;21.98;;
37997;SDS011;24079;51.824;4.682;2023-02-21T11:05:48;47.17;;;21.92;;
37997;SDS011;24079;51.824;4.682;2023-02-21T11:08:16;45.58;;;21.90;;
37997;SDS011;24079;51.824;4.682;2023-02-21T11:11:00;51.67;;;22.67;;
37997;SDS011;24079;51.824;4.682;2023-02-21T11:13:29;47.00;;;20.95;;
37997;SDS011;24079;51.824;4.682;2023-02-21T11:16:07;46.40;;;21.73;;
37997;SDS011;24079;51.824;4.682;2023-02-21T11:18:44;47.30;;;21.73;;
37997;SDS011;24079;51.824;4.682;2023-02-21T11:21:17;48.85;;;23.02;;
37997;SDS011;24079;51.824;4.682;2023-02-21T11:24:03;50.15;;;22.02;;
37997;SDS011;24079;51.824;4.682;2023-02-21T11:26:35;42.25;;;20.52;;
37997;SDS011;24079;51.824;4.682;2023-02-21T11:29:23;48.40;;;21.58;;
37997;SDS011;24079;51.824;4.682;2023-02-21T11:31:51;45.13;;;20.85;;
37997;SDS011;24079;51.824;4.682;2023-02-21T11:34:18;39.45;;;19.25;;
37997;SDS011;24079;51.824;4.682;2023-02-21T11:36:44;45.90;;;21.02;;
37997;SDS011;24079;51.824;4.682;2023-02-21T11:39:18;41.55;;;20.60;;
37997;SDS011;24079;51.824;4.682;2023-02-21T11:41:58;39.03;;;19.55;;
37997;SDS011;24079;51.824;4.682;2023-02-21T11:44:30;40.85;;;20.15;;
37997;SDS011;24079;51.824;4.682;2023-02-21T11:47:07;39.72;;;18.98;;
37997;SDS011;24079;51.824;4.682;2023-02-21T11:52:42;40.20;;;18.60;;
37997;SDS011;24079;51.824;4.682;2023-02-21T11:55:18;36.22;;;18.50;;
37997;SDS011;24079;51.824;4.682;2023-02-21T12:09:14;35.03;;;16.83;;
37997;SDS011;24079;51.824;4.682;2023-02-21T12:22:57;30.75;;;14.52;;
37997;SDS011;24079;51.824;4.682;2023-02-21T12:39:36;26.67;;;13.13;;
37997;SDS011;24079;51.824;4.682;2023-02-21T12:44:49;28.23;;;13.02;;
37997;SDS011;24079;51.824;4.682;2023-02-21T12:47:51;23.30;;;12.85;;
37997;SDS011;24079;51.824;4.682;2023-02-21T12:53:10;23.15;;;11.15;;
37997;SDS011;24079;51.824;4.682;2023-02-21T12:56:05;24.13;;;12.23;;
37997;SDS011;24079;51.824;4.682;2023-02-21T13:01:09;26.05;;;13.30;;
37997;SDS011;24079;51.824;4.682;2023-02-21T13:11:35;29.85;;;14.27;;
37997;SDS011;24079;51.824;4.682;2023-02-21T13:14:24;27.98;;;13.20;;
37997;SDS011;24079;51.824;4.682;2023-02-21T13:16:59;24.70;;;13.23;;
37997;SDS011;24079;51.824;4.682;2023-02-21T13:19:26;26.15;;;14.00;;
37997;SDS011;24079;51.824;4.682;2023-02-21T13:22:04;24.02;;;12.68;;
37997;SDS011;24079;51.824;4.682;2023-02-21T13:33:02;26.00;;;12.60;;
37997;SDS011;24079;51.824;4.682;2023-02-21T13:35:37;25.88;;;13.10;;
37997;SDS011;24079;51.824;4.682;2023-02-21T13:38:07;25.20;;;12.63;;
37997;SDS011;24079;51.824;4.682;2023-02-21T13:40:37;24.17;;;12.75;;
37997;SDS011;24079;51.824;4.682;2023-02-21T13:43:12;23.80;;;12.63;;
37997;SDS011;24079;51.824;4.682;2023-02-21T13:45:47;25.50;;;13.30;;
37997;SDS011;24079;51.824;4.682;2023-02-21T13:48:25;27.10;;;13.32;;
37997;SDS011;24079;51.824;4.682;2023-02-21T13:50:55;26.90;;;14.38;;
37997;SDS011;24079;51.824;4.682;2023-02-21T13:53:24;26.17;;;13.95;;
37997;SDS011;24079;51.824;4.682;2023-02-21T13:58:37;30.95;;;16.00;;
37997;SDS011;24079;51.824;4.682;2023-02-21T14:01:38;33.85;;;16.02;;
37997;SDS011;24079;51.824;4.682;2023-02-21T14:07:09;31.35;;;14.40;;
37997;SDS011;24079;51.824;4.682;2023-02-21T14:09:35;34.17;;;15.48;;
37997;SDS011;24079;51.824;4.682;2023-02-21T14:12:04;31.20;;;14.57;;
37997;SDS011;24079;51.824;4.682;2023-02-21T14:14:31;30.80;;;14.15;;
37997;SDS011;24079;51.824;4.682;2023-02-21T14:17:04;33.28;;;15.75;;
37997;SDS011;24079;51.824;4.682;2023-02-21T14:22:11;30.98;;;13.85;;
37997;SDS011;24079;51.824;4.682;2023-02-21T14:24:48;31.52;;;14.35;;
37997;SDS011;24079;51.824;4.682;2023-02-21T14:34:40;33.22;;;14.68;;
37997;SDS011;24079;51.824;4.682;2023-02-21T14:39:54;35.63;;;15.25;;
37997;SDS011;24079;51.824;4.682;2023-02-21T14:45:21;37.55;;;15.35;;
37997;SDS011;24079;51.824;4.682;2023-02-21T14:48:07;40.45;;;14.80;;
37997;SDS011;24079;51.824;4.682;2023-02-21T15:05:13;36.55;;;14.95;;
37997;SDS011;24079;51.824;4.682;2023-02-21T15:15:17;29.77;;;13.43;;
37997;SDS011;24079;51.824;4.682;2023-02-21T15:17:55;33.13;;;13.77;;
37997;SDS011;24079;51.824;4.682;2023-02-21T15:20:27;34.13;;;15.25;;
37997;SDS011;24079;51.824;4.682;2023-02-21T15:22:55;30.52;;;13.52;;
37997;SDS011;24079;51.824;4.682;2023-02-21T15:25:24;30.90;;;13.15;;
37997;SDS011;24079;51.824;4.682;2023-02-21T15:32:54;31.10;;;14.15;;
37997;SDS011;24079;51.824;4.682;2023-02-21T15:35:33;28.23;;;13.20;;
37997;SDS011;24079;51.824;4.682;2023-02-21T15:38:04;23.45;;;11.32;;
37997;SDS011;24079;51.824;4.682;2023-02-21T15:40:39;22.40;;;10.73;;
37997;SDS011;24079;51.824;4.682;2023-02-21T15:43:05;21.60;;;10.95;;
37997;SDS011;24079;51.824;4.682;2023-02-21T15:45:43;21.35;;;10.60;;
37997;SDS011;24079;51.824;4.682;2023-02-21T15:48:12;22.92;;;12.38;;
37997;SDS011;24079;51.824;4.682;2023-02-21T15:50:39;23.52;;;11.23;;
37997;SDS011;24079;51.824;4.682;2023-02-21T15:55:43;20.20;;;11.02;;
37997;SDS011;24079;51.824;4.682;2023-02-21T15:58:18;27.05;;;13.70;;
37997;SDS011;24079;51.824;4.682;2023-02-21T16:01:09;24.63;;;13.77;;
37997;SDS011;24079;51.824;4.682;2023-02-21T16:03:36;26.38;;;13.85;;
37997;SDS011;24079;51.824;4.682;2023-02-21T16:09:34;28.42;;;13.40;;
37997;SDS011;24079;51.824;4.682;2023-02-21T16:17:21;31.63;;;15.65;;
37997;SDS011;24079;51.824;4.682;2023-02-21T16:19:59;32.20;;;15.75;;
37997;SDS011;24079;51.824;4.682;2023-02-21T16:22:35;30.98;;;14.50;;
37997;SDS011;24079;51.824;4.682;2023-02-21T16:27:37;42.95;;;18.23;;
37997;SDS011;24079;51.824;4.682;2023-02-21T16:30:05;36.15;;;17.27;;
37997;SDS011;24079;51.824;4.682;2023-02-21T16:32:35;39.17;;;17.80;;
37997;SDS011;24079;51.824;4.682;2023-02-21T16:35:04;38.63;;;18.52;;
37997;SDS011;24079;51.824;4.682;2023-02-21T16:37:30;43.53;;;19.02;;
37997;SDS011;24079;51.824;4.682;2023-02-21T16:39:56;40.17;;;19.33;;
37997;SDS011;24079;51.824;4.682;2023-02-21T16:42:22;44.42;;;19.17;;
37997;SDS011;24079;51.824;4.682;2023-02-21T16:44:49;47.38;;;21.23;;
37997;SDS011;24079;51.824;4.682;2023-02-21T16:47:15;48.83;;;22.13;;
37997;SDS011;24079;51.824;4.682;2023-02-21T16:49:43;46.40;;;20.60;;
37997;SDS011;24079;51.824;4.682;2023-02-21T16:52:11;46.47;;;20.60;;
37997;SDS011;24079;51.824;4.682;2023-02-21T16:54:39;46.67;;;22.90;;
37997;SDS011;24079;51.824;4.682;2023-02-21T16:57:05;53.88;;;21.80;;
37997;SDS011;24079;51.824;4.682;2023-02-21T16:59:32;49.80;;;21.75;;
37997;SDS011;24079;51.824;4.682;2023-02-21T17:01:57;52.65;;;21.20;;
37997;SDS011;24079;51.824;4.682;2023-02-21T17:04:25;46.75;;;21.02;;
37997;SDS011;24079;51.824;4.682;2023-02-21T17:06:58;52.42;;;21.35;;
37997;SDS011;24079;51.824;4.682;2023-02-21T17:09:28;53.28;;;21.52;;
37997;SDS011;24079;51.824;4.682;2023-02-21T17:11:58;50.20;;;20.88;;
37997;SDS011;24079;51.824;4.682;2023-02-21T17:14:24;56.60;;;25.10;;
37997;SDS011;24079;51.824;4.682;2023-02-21T17:16:50;54.05;;;23.30;;
37997;SDS011;24079;51.824;4.682;2023-02-21T17:19:17;49.45;;;22.27;;
37997;SDS011;24079;51.824;4.682;2023-02-21T17:21:46;51.03;;;21.00;;
37997;SDS011;24079;51.824;4.682;2023-02-21T17:24:12;45.53;;;21.20;;
37997;SDS011;24079;51.824;4.682;2023-02-21T17:26:39;50.75;;;20.65;;
37997;SDS011;24079;51.824;4.682;2023-02-21T17:29:05;39.30;;;18.40;;
37997;SDS011;24079;51.824;4.682;2023-02-21T17:31:32;45.33;;;19.90;;
37997;SDS011;24079;51.824;4.682;2023-02-21T17:33:58;44.97;;;19.30;;
37997;SDS011;24079;51.824;4.682;2023-02-21T17:36:25;50.60;;;22.58;;